Alvaro Obregon, Mexico

12:45 AM CDT on June 27, 2017 (GMT -0500)
Gen Francisco J Mujica International | | Change Station

Elev 6033 ft 19.85 °N, 101.03 °W | Updated 1 hour ago

Overcast
Overcast
63 °F
Feels Like 63 °F
N
4
Wind Variable Wind from NNW

Today
High -- | Low -- °F
--% Chance of Precip.
Yesterday
High -- | Low -- °F
Precip. -- in
Pressure 30.29 in
Visibility 6.0 miles
Clouds Scattered Clouds 3000 ft
Mostly Cloudy 10000 ft
Overcast 23000 ft
Dew Point 59 °F
Humidity 88%
Rainfall 0.55 in
Snow Depth Not available.
7:07 AM 8:26 PM
Waxing Crescent, 14% visible
METAR MMMM 270443Z 34003KT 6SM SCT030 BKN100 OVC230 17/15 A3029 RMK 8/577 BINOVC
Pressure 30.29 in
Visibility 6.0 miles
Clouds Scattered Clouds 3000 ft
Mostly Cloudy 10000 ft
Overcast 23000 ft
Dew Point 59 °F
Humidity 88%
Rainfall 0.55 in
Snow Depth Not available.
7:07 AM 8:26 PM
Waxing Crescent, 14% visible
METAR MMMM 270443Z 34003KT 6SM SCT030 BKN100 OVC230 17/15 A3029 RMK 8/577 BINOVC

Get Severe Weather Alerts

Thanks for signing up!

Be on the lookout for a verification email in your inbox.

You'll start receiving the daily forecast at 6 AM.

×

10-Day Weather Forecast

No radar image for this location.
×

Almanac

Astronomy

Jun. 27, 2017 Rise Set
Actual Time
Civil Twilight
Nautical Twilight
Astronomical Twilight
Moon
Length of Visible Light
Length of Day
Tomorrow will be .
, % of the Moon is Illuminated

Today's Extremes

Country Highs Country Lows

Community

WunderPhotos

Category 6

Welcome to Category 6. This is the collective home for Weather Underground's featured writeups by Dr. Jeff Masters (right), Bob Henson (left), Chris Burt, and other regular contributors.

Nearby

Air Quality

  Air Quality AQ Index Pollutant
Not available.

Snow Depth

Station Depth Elevation

Earthquake Activity

City Distance Mag. Time & Date
Minimum magnitude displayed is 2.5.

Coastal Water Temperatures

Place Temperature

Stations

Nearby Weather Stations

Station Location Temp. Windchill Dew Point Humidity Wind Precip. Elev Updated Type